Cosco Kaohsiung — VREM3 — position and weather

sailwx.info

Track history (hours):
 
Tides and Currents Weather Stations Pressure Air Temp Water Temp Dewpoint Dewpoint Depression Visibility Wind Speed Wind Dir Waves Ship Positions

Cosco Kaohsiung

Last reported at 2015-May-26 06:16 UTC. Time now 2015-May-26 07:49 UTC.
Position N 41°18' E 002°09'.

Length 349 m; draft 13.2 m.

Type: Ship (hazmat cat A). MMSI: 477136800.

Date/timePositionNaut miles runAvg speedWind from/ knotsBaromVisibWave heightAir tempDewpointWater temp
2015-May-26 06:16N 41°18' E 002°09'0 0.0
2015-May-26 05:22N 41°18' E 002°09'0 0.0
2015-May-26 04:10N 41°18' E 002°09'0 0.0
2015-May-26 03:28N 41°18' E 002°09'0 0.0
2015-May-26 02:22N 41°19' E 002°09'0 0.0
2015-May-26 01:28N 41°18' E 002°09'0 0.0
2015-May-26 00:28N 41°18' E 002°09'0 0.0
2015-May-25 23:31N 41°18' E 002°09'0 0.0
2015-May-25 22:28N 41°19' E 002°09'0 0.0
2015-May-25 21:22N 41°19' E 002°09'0 0.0
2015-May-25 20:10N 41°18' E 002°09'0 0.0
2015-May-25 19:10N 41°18' E 002°09'0 0.0
2015-May-25 18:22N 41°19' E 002°09'0 0.0
2015-May-25 17:28N 41°18' E 002°09'0 0.0
2015-May-25 16:31N 41°19' E 002°09'1 1.2
2015-May-25 15:33N 41°19' E 002°10'6 6.0
2015-May-25 14:33N 41°18' E 002°18'1716.5
2015-May-25 13:33N 41°27' E 002°37'5717.2
2015-May-25 10:14N 41°51' E 003°46'3217.2
2015-May-25 08:22N 42°06' E 004°25'3417.2
2015-May-25 06:22N 42°21' E 005°06'3616.9
2015-May-25 04:13N 42°36' E 005°51'1116.9
2015-May-25 03:33N 42°41' E 006°04'2017.5
2015-May-25 02:25N 42°50' E 006°29'1517.6
2015-May-25 01:33N 42°56' E 006°48'1717.4
2015-May-25 00:33N 43°04' E 007°09'1817.2
2015-May-24 23:30N 43°11' E 007°32'1717.1
2015-May-24 22:31N 43°18' E 007°53'1717.3
2015-May-24 21:33N 43°26' E 008°13'1717.2
2015-May-24 20:33N 43°34' E 008°34'1717.0
2015-May-24 19:33N 43°42' E 008°55'1717.0
2015-May-24 18:33N 43°48' E 009°17'1716.8
2015-May-24 17:34N 43°55' E 009°38'1313.2
2015-May-24 16:33N 44°04' E 009°51'2 2.2
2015-May-24 15:32N 44°06' E 009°51'0 0.0
2015-May-24 14:32N 44°06' E 009°51'0 0.0
2015-May-24 13:32N 44°06' E 009°51'0 0.0
2015-May-24 12:29N 44°06' E 009°51'0 0.0
2015-May-24 11:32N 44°06' E 009°51'0 0.0
2015-May-24 10:32N 44°06' E 009°51'0 0.0
2015-May-24 09:32N 44°06' E 009°51'0 0.0
2015-May-24 08:32N 44°06' E 009°51'0 0.0
2015-May-24 07:32N 44°06' E 009°51'0 0.0
2015-May-24 06:32N 44°06' E 009°51'0 0.0
2015-May-24 05:32N 44°06' E 009°51'0 0.0
2015-May-24 04:32N 44°06' E 009°51'0 0.0
2015-May-24 03:32N 44°06' E 009°51'0 0.0
2015-May-24 02:32N 44°06' E 009°51'0 0.0
2015-May-24 01:32N 44°06' E 009°51'0 0.0
2015-May-24 00:32N 44°06' E 009°51'0 0.0
2015-May-23 23:32N 44°06' E 009°51'0 0.0
2015-May-23 22:32N 44°06' E 009°51'0 0.0
2015-May-23 21:32N 44°06' E 009°51'0 0.0
2015-May-23 20:32N 44°06' E 009°51'0 0.0
2015-May-23 19:32N 44°06' E 009°51'0 0.0
2015-May-23 18:32N 44°06' E 009°51'0 0.0
2015-May-23 17:32N 44°06' E 009°51'0 0.0
2015-May-23 16:32N 44°06' E 009°51'0 0.0
2015-May-23 15:32N 44°06' E 009°51'0 0.0
2015-May-23 14:32N 44°06' E 009°51'0 0.0
2015-May-23 13:32N 44°06' E 009°51'0 0.0
2015-May-23 12:32N 44°06' E 009°51'0 0.0
2015-May-23 11:32N 44°06' E 009°51'0 0.0
2015-May-23 10:32N 44°06' E 009°51'0 0.0
2015-May-23 09:32N 44°06' E 009°51'0 0.0
2015-May-23 08:32N 44°06' E 009°51'0 0.0
2015-May-23 07:32N 44°06' E 009°51'0 0.0
2015-May-23 06:32N 44°06' E 009°51'0 0.0
2015-May-23 05:29N 44°06' E 009°51'0 0.0
2015-May-23 04:32N 44°06' E 009°51'0 0.0
2015-May-23 03:32N 44°06' E 009°51'0 0.0
2015-May-23 02:32N 44°06' E 009°51'0 0.0
2015-May-23 01:32N 44°06' E 009°51'0 0.0
2015-May-23 00:32N 44°06' E 009°51'0 0.0
2015-May-22 23:32N 44°06' E 009°51'0 0.0
2015-May-22 22:32N 44°06' E 009°51'0 0.5
2015-May-22 21:33N 44°06' E 009°51'7 6.9
2015-May-22 20:33N 44°00' E 009°56'1413.9
2015-May-22 19:33N 43°59' E 009°37'1413.9
2015-May-22 18:33N 44°05' E 009°20'1413.9
2015-May-22 17:33N 44°11' E 009°02'1413.7
2015-May-22 16:33N 44°19' E 008°46'6 5.9
2015-May-22 15:31N 44°25' E 008°48'0 0.0
2015-May-22 14:31N 44°25' E 008°48'0 0.0
2015-May-22 13:31N 44°25' E 008°48'0 0.0
2015-May-22 12:25N 44°25' E 008°48'0 0.0
2015-May-22 11:31N 44°25' E 008°48'0 0.0
2015-May-22 10:31N 44°25' E 008°48'0 0.0
2015-May-22 09:31N 44°25' E 008°48'0 0.0
2015-May-22 08:16N 44°25' E 008°48'0 0.0
2015-May-22 07:31N 44°25' E 008°48'0 0.0
2015-May-22 06:31N 44°25' E 008°48'0 0.0
2015-May-22 05:28N 44°25' E 008°48'0 0.0
2015-May-22 04:28N 44°25' E 008°48'0 0.0
2015-May-22 03:31N 44°25' E 008°48'0 0.0
2015-May-22 02:31N 44°25' E 008°48'0 0.0
2015-May-22 01:31N 44°25' E 008°48'0 0.0
2015-May-22 00:31N 44°25' E 008°48'0 0.0
2015-May-21 23:31N 44°25' E 008°48'0 0.0
2015-May-21 22:31N 44°25' E 008°48'0 0.0
2015-May-21 21:31N 44°25' E 008°48'0 0.0
2015-May-21 20:31N 44°25' E 008°48'0 0.0
2015-May-21 19:31N 44°25' E 008°48'0 0.0
2015-May-21 18:28N 44°25' E 008°48'0 0.0
2015-May-21 17:31N 44°25' E 008°48'0 0.0
2015-May-21 16:31N 44°25' E 008°48'0 0.0
2015-May-21 15:31N 44°25' E 008°48'0 0.0
2015-May-21 14:31N 44°25' E 008°48'0 0.0
2015-May-21 13:31N 44°25' E 008°48'0 0.0
2015-May-21 12:31N 44°25' E 008°48'0 0.0
2015-May-21 11:31N 44°25' E 008°48'0 0.0
2015-May-21 10:31N 44°25' E 008°48'0 0.0
2015-May-21 09:31N 44°25' E 008°48'0 0.0
2015-May-21 08:28N 44°25' E 008°48'0 0.0
2015-May-21 07:31N 44°25' E 008°48'0 0.0
2015-May-21 06:31N 44°25' E 008°48'0 0.0
2015-May-21 05:31N 44°25' E 008°48'0 0.0
2015-May-21 04:28N 44°25' E 008°48'0 0.0
2015-May-21 03:31N 44°25' E 008°48'0 0.0
2015-May-21 02:31N 44°25' E 008°48'0 0.0
2015-May-21 01:31N 44°25' E 008°48'0 0.0
2015-May-21 00:31N 44°25' E 008°48'0 0.0
2015-May-20 23:31N 44°25' E 008°48'0 0.0
2015-May-20 22:31N 44°25' E 008°48'0 0.0
2015-May-20 21:31N 44°25' E 008°48'0 0.0
2015-May-20 20:31N 44°25' E 008°48'0 0.0
2015-May-20 19:31N 44°25' E 008°48'0 0.0
2015-May-20 18:31N 44°25' E 008°48'0 0.0
2015-May-20 17:31N 44°25' E 008°48'0 0.0
2015-May-20 16:31N 44°25' E 008°48'1 0.6
2015-May-20 15:33N 44°25' E 008°47'4 4.3
2015-May-20 14:33N 44°21' E 008°44'1211.5
2015-May-20 13:34N 44°11' E 008°52'1515.4
2015-May-20 12:33N 43°57' E 009°02'1717.1
2015-May-20 11:33N 43°42' E 009°12'1717.0
2015-May-20 10:34N 43°27' E 009°23'1716.6
2015-May-20 09:33N 43°12' E 009°33'1717.1
2015-May-20 08:34N 42°56' E 009°42'1817.5
2015-May-20 07:32N 42°39' E 009°48'11516.2
2015-May-20 00:27N 41°08' E 011°23'1517.3
2015-May-19 23:33N 40°58' E 011°39'1817.5
2015-May-19 22:33N 40°47' E 011°56'2017.5
2015-May-19 21:25N 40°34' E 012°17'1517.2
2015-May-19 20:31N 40°25' E 012°32'1717.3
2015-May-19 19:33N 40°14' E 012°49'1717.0
2015-May-19 18:33N 40°03' E 013°06'1716.9
2015-May-19 17:33N 39°52' E 013°23'1716.9
2015-May-19 16:33N 39°41' E 013°40'1717.2
2015-May-19 15:33N 39°30' E 013°57'2017.6
2015-May-19 14:27N 39°18' E 014°16'3617.6
2015-May-19 12:22N 38°54' E 014°52'42915.2
2015-May-18 08:03N 36°53' E 023°34'917.2
2015-May-18 07:33N 37°01' E 023°36'1717.4
2015-May-18 06:33N 37°19' E 023°40'1717.4
2015-May-18 05:33N 37°36' E 023°42'1717.2
2015-May-18 04:34N 37°52' E 023°37'5 4.8
2015-May-18 03:33N 37°57' E 023°35'0 0.0
2015-May-18 02:33N 37°57' E 023°35'0 0.0
2015-May-18 01:33N 37°57' E 023°35'0 0.0
2015-May-18 00:30N 37°57' E 023°35'0 0.0
2015-May-17 23:30N 37°57' E 023°35'0 0.0
2015-May-17 22:33N 37°57' E 023°35'0 0.0
2015-May-17 21:33N 37°57' E 023°35'0 0.0
2015-May-17 20:27N 37°57' E 023°35'0 0.0
2015-May-17 19:33N 37°57' E 023°35'0 0.0
2015-May-17 18:33N 37°57' E 023°35'0 0.0
2015-May-17 17:33N 37°57' E 023°35'0 0.0
2015-May-17 16:33N 37°57' E 023°35'0 0.0
2015-May-17 15:33N 37°57' E 023°35'0 0.0
2015-May-17 14:30N 37°57' E 023°35'0 0.0
2015-May-17 13:30N 37°57' E 023°35'0 0.0
2015-May-17 12:33N 37°57' E 023°35'0 0.0
2015-May-17 11:30N 37°57' E 023°35'0 0.0
2015-May-17 10:33N 37°57' E 023°35'0 0.0
2015-May-17 09:33N 37°57' E 023°35'0 0.0
2015-May-17 08:33N 37°57' E 023°35'0 0.0
2015-May-17 07:30N 37°57' E 023°35'0 0.0
2015-May-17 06:30N 37°57' E 023°35'0 0.0
2015-May-17 05:30N 37°57' E 023°35'4 3.7
2015-May-17 04:33N 37°54' E 023°36'2 2.4
2015-May-17 03:33N 37°51' E 023°37'7 7.5
2015-May-17 02:33N 37°46' E 023°43'9 8.8
2015-May-17 01:33N 37°37' E 023°47'9 8.8
2015-May-17 00:29N 37°28' E 023°50'1612.4
2015-May-16 23:10N 37°12' E 023°55'812.9
2015-May-16 22:33N 37°05' E 023°58'1313.0
2015-May-16 21:33N 36°52' E 024°02'1413.4
2015-May-16 20:33N 36°40' E 024°11'1413.8
2015-May-16 19:33N 36°29' E 024°19'1413.7
2015-May-16 18:33N 36°18' E 024°30'1413.7
2015-May-16 17:33N 36°10' E 024°44'1413.4
2015-May-16 16:31N 36°03' E 024°59'1313.5
2015-May-16 15:33N 35°57' E 025°13'1313.5
2015-May-16 14:33N 35°51' E 025°28'1513.7
2015-May-16 13:27N 35°43' E 025°44'1813.7
2015-May-16 12:06N 35°34' E 026°04'2113.7
2015-May-16 10:33N 35°24' E 026°27'1413.7
2015-May-16 09:33N 35°16' E 026°41'1414.0
2015-May-16 08:33N 35°08' E 026°54'1813.7
2015-May-16 07:14N 34°56' E 027°11'913.6
2015-May-16 06:33N 34°51' E 027°20'  
Track history (hours):
 
Tides and Currents Weather Stations Pressure Air Temp Water Temp Dewpoint Dewpoint Depression Visibility Wind Speed Wind Dir Waves Ship Positions

Cosco Kaohsiung

Last reported at 2015-May-26 06:16 UTC. Time now 2015-May-26 07:49 UTC.
Position N 41°18' E 002°09'.

Length 349 m; draft 13.2 m.

Type: Ship (hazmat cat A). MMSI: 477136800.

Date/timePositionNaut miles runAvg speedWind from/ knotsBaromVisibWave heightAir tempDewpointWater temp
2015-May-26 06:16N 41°18' E 002°09'0 0.0
2015-May-26 05:22N 41°18' E 002°09'0 0.0
2015-May-26 04:10N 41°18' E 002°09'0 0.0
2015-May-26 03:28N 41°18' E 002°09'0 0.0
2015-May-26 02:22N 41°19' E 002°09'0 0.0
2015-May-26 01:28N 41°18' E 002°09'0 0.0
2015-May-26 00:28N 41°18' E 002°09'0 0.0
2015-May-25 23:31N 41°18' E 002°09'0 0.0
2015-May-25 22:28N 41°19' E 002°09'0 0.0
2015-May-25 21:22N 41°19' E 002°09'0 0.0
2015-May-25 20:10N 41°18' E 002°09'0 0.0
2015-May-25 19:10N 41°18' E 002°09'0 0.0
2015-May-25 18:22N 41°19' E 002°09'0 0.0
2015-May-25 17:28N 41°18' E 002°09'0 0.0
2015-May-25 16:31N 41°19' E 002°09'1 1.2
2015-May-25 15:33N 41°19' E 002°10'6 6.0
2015-May-25 14:33N 41°18' E 002°18'1716.5
2015-May-25 13:33N 41°27' E 002°37'5717.2
2015-May-25 10:14N 41°51' E 003°46'3217.2
2015-May-25 08:22N 42°06' E 004°25'3417.2
2015-May-25 06:22N 42°21' E 005°06'3616.9
2015-May-25 04:13N 42°36' E 005°51'1116.9
2015-May-25 03:33N 42°41' E 006°04'2017.5
2015-May-25 02:25N 42°50' E 006°29'1517.6
2015-May-25 01:33N 42°56' E 006°48'1717.4
2015-May-25 00:33N 43°04' E 007°09'1817.2
2015-May-24 23:30N 43°11' E 007°32'1717.1
2015-May-24 22:31N 43°18' E 007°53'1717.3
2015-May-24 21:33N 43°26' E 008°13'1717.2
2015-May-24 20:33N 43°34' E 008°34'1717.0
2015-May-24 19:33N 43°42' E 008°55'1717.0
2015-May-24 18:33N 43°48' E 009°17'1716.8
2015-May-24 17:34N 43°55' E 009°38'1313.2
2015-May-24 16:33N 44°04' E 009°51'2 2.2
2015-May-24 15:32N 44°06' E 009°51'0 0.0
2015-May-24 14:32N 44°06' E 009°51'0 0.0
2015-May-24 13:32N 44°06' E 009°51'0 0.0
2015-May-24 12:29N 44°06' E 009°51'0 0.0
2015-May-24 11:32N 44°06' E 009°51'0 0.0
2015-May-24 10:32N 44°06' E 009°51'0 0.0
2015-May-24 09:32N 44°06' E 009°51'0 0.0
2015-May-24 08:32N 44°06' E 009°51'0 0.0
2015-May-24 07:32N 44°06' E 009°51'0 0.0
2015-May-24 06:32N 44°06' E 009°51'0 0.0
2015-May-24 05:32N 44°06' E 009°51'0 0.0
2015-May-24 04:32N 44°06' E 009°51'0 0.0
2015-May-24 03:32N 44°06' E 009°51'0 0.0
2015-May-24 02:32N 44°06' E 009°51'0 0.0
2015-May-24 01:32N 44°06' E 009°51'0 0.0
2015-May-24 00:32N 44°06' E 009°51'0 0.0
2015-May-23 23:32N 44°06' E 009°51'0 0.0
2015-May-23 22:32N 44°06' E 009°51'0 0.0
2015-May-23 21:32N 44°06' E 009°51'0 0.0
2015-May-23 20:32N 44°06' E 009°51'0 0.0
2015-May-23 19:32N 44°06' E 009°51'0 0.0
2015-May-23 18:32N 44°06' E 009°51'0 0.0
2015-May-23 17:32N 44°06' E 009°51'0 0.0
2015-May-23 16:32N 44°06' E 009°51'0 0.0
2015-May-23 15:32N 44°06' E 009°51'0 0.0
2015-May-23 14:32N 44°06' E 009°51'0 0.0
2015-May-23 13:32N 44°06' E 009°51'0 0.0
2015-May-23 12:32N 44°06' E 009°51'0 0.0
2015-May-23 11:32N 44°06' E 009°51'0 0.0
2015-May-23 10:32N 44°06' E 009°51'0 0.0
2015-May-23 09:32N 44°06' E 009°51'0 0.0
2015-May-23 08:32N 44°06' E 009°51'0 0.0
2015-May-23 07:32N 44°06' E 009°51'0 0.0
2015-May-23 06:32N 44°06' E 009°51'0 0.0
2015-May-23 05:29N 44°06' E 009°51'0 0.0
2015-May-23 04:32N 44°06' E 009°51'0 0.0
2015-May-23 03:32N 44°06' E 009°51'0 0.0
2015-May-23 02:32N 44°06' E 009°51'0 0.0
2015-May-23 01:32N 44°06' E 009°51'0 0.0
2015-May-23 00:32N 44°06' E 009°51'0 0.0
2015-May-22 23:32N 44°06' E 009°51'0 0.0
2015-May-22 22:32N 44°06' E 009°51'0 0.5
2015-May-22 21:33N 44°06' E 009°51'7 6.9
2015-May-22 20:33N 44°00' E 009°56'1413.9
2015-May-22 19:33N 43°59' E 009°37'1413.9
2015-May-22 18:33N 44°05' E 009°20'1413.9
2015-May-22 17:33N 44°11' E 009°02'1413.7
2015-May-22 16:33N 44°19' E 008°46'6 5.9
2015-May-22 15:31N 44°25' E 008°48'0 0.0
2015-May-22 14:31N 44°25' E 008°48'0 0.0
2015-May-22 13:31N 44°25' E 008°48'0 0.0
2015-May-22 12:25N 44°25' E 008°48'0 0.0
2015-May-22 11:31N 44°25' E 008°48'0 0.0
2015-May-22 10:31N 44°25' E 008°48'0 0.0
2015-May-22 09:31N 44°25' E 008°48'0 0.0
2015-May-22 08:16N 44°25' E 008°48'0 0.0
2015-May-22 07:31N 44°25' E 008°48'0 0.0
2015-May-22 06:31N 44°25' E 008°48'0 0.0
2015-May-22 05:28N 44°25' E 008°48'0 0.0
2015-May-22 04:28N 44°25' E 008°48'0 0.0
2015-May-22 03:31N 44°25' E 008°48'0 0.0
2015-May-22 02:31N 44°25' E 008°48'0 0.0
2015-May-22 01:31N 44°25' E 008°48'0 0.0
2015-May-22 00:31N 44°25' E 008°48'0 0.0
2015-May-21 23:31N 44°25' E 008°48'0 0.0
2015-May-21 22:31N 44°25' E 008°48'0 0.0
2015-May-21 21:31N 44°25' E 008°48'0 0.0
2015-May-21 20:31N 44°25' E 008°48'0 0.0
2015-May-21 19:31N 44°25' E 008°48'0 0.0
2015-May-21 18:28N 44°25' E 008°48'0 0.0
2015-May-21 17:31N 44°25' E 008°48'0 0.0
2015-May-21 16:31N 44°25' E 008°48'0 0.0
2015-May-21 15:31N 44°25' E 008°48'0 0.0
2015-May-21 14:31N 44°25' E 008°48'0 0.0
2015-May-21 13:31N 44°25' E 008°48'0 0.0
2015-May-21 12:31N 44°25' E 008°48'0 0.0
2015-May-21 11:31N 44°25' E 008°48'0 0.0
2015-May-21 10:31N 44°25' E 008°48'0 0.0
2015-May-21 09:31N 44°25' E 008°48'0 0.0
2015-May-21 08:28N 44°25' E 008°48'0 0.0
2015-May-21 07:31N 44°25' E 008°48'0 0.0
2015-May-21 06:31N 44°25' E 008°48'0 0.0
2015-May-21 05:31N 44°25' E 008°48'0 0.0
2015-May-21 04:28N 44°25' E 008°48'0 0.0
2015-May-21 03:31N 44°25' E 008°48'0 0.0
2015-May-21 02:31N 44°25' E 008°48'0 0.0
2015-May-21 01:31N 44°25' E 008°48'0 0.0
2015-May-21 00:31N 44°25' E 008°48'0 0.0
2015-May-20 23:31N 44°25' E 008°48'0 0.0
2015-May-20 22:31N 44°25' E 008°48'0 0.0
2015-May-20 21:31N 44°25' E 008°48'0 0.0
2015-May-20 20:31N 44°25' E 008°48'0 0.0
2015-May-20 19:31N 44°25' E 008°48'0 0.0
2015-May-20 18:31N 44°25' E 008°48'0 0.0
2015-May-20 17:31N 44°25' E 008°48'0 0.0
2015-May-20 16:31N 44°25' E 008°48'1 0.6
2015-May-20 15:33N 44°25' E 008°47'4 4.3
2015-May-20 14:33N 44°21' E 008°44'1211.5
2015-May-20 13:34N 44°11' E 008°52'1515.4
2015-May-20 12:33N 43°57' E 009°02'1717.1
2015-May-20 11:33N 43°42' E 009°12'1717.0
2015-May-20 10:34N 43°27' E 009°23'1716.6
2015-May-20 09:33N 43°12' E 009°33'1717.1
2015-May-20 08:34N 42°56' E 009°42'1817.5
2015-May-20 07:32N 42°39' E 009°48'11516.2
2015-May-20 00:27N 41°08' E 011°23'1517.3
2015-May-19 23:33N 40°58' E 011°39'1817.5
2015-May-19 22:33N 40°47' E 011°56'2017.5
2015-May-19 21:25N 40°34' E 012°17'1517.2
2015-May-19 20:31N 40°25' E 012°32'1717.3
2015-May-19 19:33N 40°14' E 012°49'1717.0
2015-May-19 18:33N 40°03' E 013°06'1716.9
2015-May-19 17:33N 39°52' E 013°23'1716.9
2015-May-19 16:33N 39°41' E 013°40'1717.2
2015-May-19 15:33N 39°30' E 013°57'2017.6
2015-May-19 14:27N 39°18' E 014°16'3617.6
2015-May-19 12:22N 38°54' E 014°52'42915.2
2015-May-18 08:03N 36°53' E 023°34'917.2
2015-May-18 07:33N 37°01' E 023°36'1717.4
2015-May-18 06:33N 37°19' E 023°40'1717.4
2015-May-18 05:33N 37°36' E 023°42'1717.2
2015-May-18 04:34N 37°52' E 023°37'5 4.8
2015-May-18 03:33N 37°57' E 023°35'0 0.0
2015-May-18 02:33N 37°57' E 023°35'0 0.0
2015-May-18 01:33N 37°57' E 023°35'0 0.0
2015-May-18 00:30N 37°57' E 023°35'0 0.0
2015-May-17 23:30N 37°57' E 023°35'0 0.0
2015-May-17 22:33N 37°57' E 023°35'0 0.0
2015-May-17 21:33N 37°57' E 023°35'0 0.0
2015-May-17 20:27N 37°57' E 023°35'0 0.0
2015-May-17 19:33N 37°57' E 023°35'0 0.0
2015-May-17 18:33N 37°57' E 023°35'0 0.0
2015-May-17 17:33N 37°57' E 023°35'0 0.0
2015-May-17 16:33N 37°57' E 023°35'0 0.0
2015-May-17 15:33N 37°57' E 023°35'0 0.0
2015-May-17 14:30N 37°57' E 023°35'0 0.0
2015-May-17 13:30N 37°57' E 023°35'0 0.0
2015-May-17 12:33N 37°57' E 023°35'0 0.0
2015-May-17 11:30N 37°57' E 023°35'0 0.0
2015-May-17 10:33N 37°57' E 023°35'0 0.0
2015-May-17 09:33N 37°57' E 023°35'0 0.0
2015-May-17 08:33N 37°57' E 023°35'0 0.0
2015-May-17 07:30N 37°57' E 023°35'0 0.0
2015-May-17 06:30N 37°57' E 023°35'0 0.0
2015-May-17 05:30N 37°57' E 023°35'4 3.7
2015-May-17 04:33N 37°54' E 023°36'2 2.4
2015-May-17 03:33N 37°51' E 023°37'7 7.5
2015-May-17 02:33N 37°46' E 023°43'9 8.8
2015-May-17 01:33N 37°37' E 023°47'9 8.8
2015-May-17 00:29N 37°28' E 023°50'1612.4
2015-May-16 23:10N 37°12' E 023°55'812.9
2015-May-16 22:33N 37°05' E 023°58'1313.0
2015-May-16 21:33N 36°52' E 024°02'1413.4
2015-May-16 20:33N 36°40' E 024°11'1413.8
2015-May-16 19:33N 36°29' E 024°19'1413.7
2015-May-16 18:33N 36°18' E 024°30'1413.7
2015-May-16 17:33N 36°10' E 024°44'1413.4
2015-May-16 16:31N 36°03' E 024°59'1313.5
2015-May-16 15:33N 35°57' E 025°13'1313.5
2015-May-16 14:33N 35°51' E 025°28'1513.7
2015-May-16 13:27N 35°43' E 025°44'1813.7
2015-May-16 12:06N 35°34' E 026°04'2113.7
2015-May-16 10:33N 35°24' E 026°27'1413.7
2015-May-16 09:33N 35°16' E 026°41'1414.0
2015-May-16 08:33N 35°08' E 026°54'1813.7
2015-May-16 07:14N 34°56' E 027°11'913.6
2015-May-16 06:33N 34°51' E 027°20'  

Dump ship's entire track history